»·PEaware :: QXE6015 KLAX-KSEA

QXE6015 :: KLAX-KSEA

FLIGHT INFORMATION

Flight Status: Arrived
Operator:
Horizon Air
More flights by this operator :: More flights under this callsign
Pilot: Robert N. (17753)
Aircraft: DEHAVILLAND DASH 8 400
(DH8D)
More flights by this aircraft type
Origin: KLAX Los Angeles Intl
United States
Destination: KSEA Seattle-Tacoma Intl
United States
More flights between these airports :: More routes between these airports
Route: +LADYJ3 CSTRO SHIMR LKV BTG HAWKZ6
File this flight plan on PilotEdge
Remarks: PBN / D1 DOF / 180102 REG / N847SB EET / KZOA0029 KZSE0125 OPR / QXE PER / C RMK / TCAS SIMBRIEF
Altitude:
(Current/Filed)
24,000ft
Speed:
(Current/Filed)
323kts
Departed: 02-Jan-18 10:10 AM
Arrived: 02-Jan-18 12:52 PM
Distance/Time
Traveled:
829nm/2:42
Distance/Time
To Go:
Arrived

Flight Plot

Page will automatically refresh every two minutes.

Flight plan parsing failed; only flown route is shown


Map Options




Map Legend


Flown Route
Filed Route
Departure Airport
Arrival Airport
Navaid (VOR, NDB)
Fix

Horizontal Profiles

Position Reports

Time Latitude Longitude Heading Altitude Ground
Speed
02-Jan-18 09:46 33.943924 -118.434344 83 133ft 0kts
02-Jan-18 09:47 33.943924 -118.434343 83 133ft 0kts
02-Jan-18 09:48 33.943924 -118.434343 83 133ft 0kts
02-Jan-18 09:49 33.943924 -118.434343 83 133ft 0kts
02-Jan-18 09:50 33.943924 -118.434343 83 133ft 0kts
02-Jan-18 09:51 33.943924 -118.434343 83 133ft 0kts
02-Jan-18 09:52 33.943924 -118.434343 83 133ft 0kts
02-Jan-18 09:53 33.943924 -118.434343 83 133ft 0kts
02-Jan-18 09:54 33.943924 -118.434343 83 133ft 0kts
02-Jan-18 09:55 33.943924 -118.434343 83 133ft 0kts
02-Jan-18 09:56 33.943924 -118.434343 83 133ft 0kts
02-Jan-18 09:57 33.943924 -118.434343 83 133ft 0kts
02-Jan-18 09:58 33.943924 -118.434343 83 133ft 0kts
02-Jan-18 09:59 33.943924 -118.434343 83 133ft 0kts
02-Jan-18 10:00 33.943924 -118.434343 83 133ft 0kts
02-Jan-18 10:01 33.943924 -118.434343 83 133ft 0kts
02-Jan-18 10:02 33.943925 -118.434335 83 133ft 1kts
02-Jan-18 10:03 33.944923 -118.433556 1 133ft 1kts
02-Jan-18 10:04 33.945938 -118.432364 81 133ft 10kts
02-Jan-18 10:05 33.946315 -118.428948 82 133ft 15kts
02-Jan-18 10:06 33.946748 -118.424710 82 133ft 9kts
02-Jan-18 10:07 33.947093 -118.421332 82 133ft 10kts
02-Jan-18 10:08 33.947474 -118.417797 82 133ft 10kts
02-Jan-18 10:09 33.947850 -118.414266 82 133ft 10kts
02-Jan-18 10:10 33.948211 -118.410753 82 133ft 10kts
02-Jan-18 10:11 33.948467 -118.408435 82 133ft 8kts
02-Jan-18 10:12 33.948932 -118.403939 83 133ft 12kts
02-Jan-18 10:13 33.949428 -118.401785 358 133ft 0kts
02-Jan-18 10:14 33.949430 -118.401785 358 133ft 0kts
02-Jan-18 10:15 33.950089 -118.403515 261 133ft 35kts
02-Jan-18 10:16 33.937945 -118.443419 217 1419ft 179kts
02-Jan-18 10:17 33.929538 -118.491986 288 4760ft 146kts
02-Jan-18 10:18 33.936559 -118.544836 271 6154ft 215kts
02-Jan-18 10:19 33.946488 -118.628704 306 5015ft 252kts
02-Jan-18 10:20 34.003728 -118.673298 355 5003ft 253kts
02-Jan-18 10:21 34.073860 -118.673502 354 5366ft 243kts
02-Jan-18 10:22 34.140956 -118.697273 342 6758ft 261kts
02-Jan-18 10:23 34.211561 -118.725989 342 7827ft 275kts
02-Jan-18 10:24 34.284429 -118.755567 342 7998ft 266kts
02-Jan-18 10:25 34.354560 -118.784032 341 9195ft 267kts
02-Jan-18 10:26 34.424844 -118.812563 341 10694ft 266kts
02-Jan-18 10:27 34.495718 -118.841446 340 12058ft 273kts
02-Jan-18 10:28 34.570728 -118.872198 340 12924ft 296kts
02-Jan-18 10:29 34.648668 -118.904134 339 13945ft 302kts
02-Jan-18 10:30 34.729755 -118.937371 339 15611ft 311kts
02-Jan-18 10:31 34.812531 -118.971379 339 17335ft 319kts
02-Jan-18 10:32 34.897339 -119.006341 338 18801ft 327kts
02-Jan-18 10:33 34.984518 -119.042340 338 20088ft 334kts
02-Jan-18 10:34 35.072747 -119.078877 337 21239ft 340kts
02-Jan-18 10:35 35.161349 -119.115649 337 21826ft 335kts
02-Jan-18 10:36 35.247736 -119.151614 337 22620ft 329kts
02-Jan-18 10:37 35.334400 -119.187696 337 23739ft 332kts
02-Jan-18 10:38 35.423546 -119.224957 337 24253ft 342kts
02-Jan-18 10:39 35.514298 -119.255821 343 24274ft 341kts
02-Jan-18 10:40 35.606290 -119.282170 342 24276ft 340kts
02-Jan-18 10:41 35.698265 -119.309505 342 24275ft 339kts
02-Jan-18 10:42 35.789803 -119.337070 342 24276ft 339kts
02-Jan-18 10:43 35.880638 -119.364418 342 24279ft 339kts
02-Jan-18 10:44 35.972320 -119.392082 342 24284ft 339kts
02-Jan-18 10:45 36.062983 -119.419779 343 24288ft 339kts
02-Jan-18 10:46 36.154766 -119.447406 343 24293ft 338kts
02-Jan-18 10:47 36.245713 -119.475063 343 24293ft 337kts
02-Jan-18 10:48 36.336489 -119.502676 343 24293ft 337kts
02-Jan-18 10:49 36.427673 -119.530542 343 24294ft 337kts
02-Jan-18 10:50 36.518563 -119.558412 343 24293ft 337kts
02-Jan-18 10:51 36.609744 -119.586347 343 24288ft 337kts
02-Jan-18 10:52 36.700400 -119.614286 343 24281ft 335kts
02-Jan-18 10:53 36.790546 -119.642085 343 24282ft 335kts
02-Jan-18 10:54 36.881402 -119.670168 343 24278ft 338kts
02-Jan-18 10:55 36.972707 -119.698475 343 24280ft 340kts
02-Jan-18 10:56 37.064458 -119.726983 343 24288ft 340kts
02-Jan-18 10:57 37.155793 -119.755442 344 24289ft 339kts
02-Jan-18 10:58 37.247175 -119.783975 344 24295ft 340kts
02-Jan-18 10:59 37.339474 -119.812866 344 24301ft 342kts
02-Jan-18 11:00 37.415732 -119.836802 344 24308ft 343kts
02-Jan-18 11:01 37.522438 -119.870366 344 24315ft 344kts
02-Jan-18 11:02 37.616004 -119.899837 344 24318ft 345kts
02-Jan-18 11:03 37.693513 -119.924394 344 24301ft 347kts
02-Jan-18 11:04 37.785896 -119.953685 344 24302ft 347kts
02-Jan-18 11:05 37.878819 -119.983153 344 24303ft 347kts
02-Jan-18 11:06 37.972156 -120.012928 344 24304ft 347kts
02-Jan-18 11:07 38.064991 -120.042554 344 24315ft 347kts
02-Jan-18 11:08 38.157647 -120.072205 344 24319ft 347kts
02-Jan-18 11:09 38.250469 -120.099343 352 24322ft 348kts
02-Jan-18 11:10 38.346815 -120.106417 355 24333ft 348kts
02-Jan-18 11:11 38.441820 -120.114457 354 24347ft 348kts
02-Jan-18 11:12 38.518134 -120.121536 354 24353ft 346kts
02-Jan-18 11:13 38.612175 -120.130189 354 24375ft 346kts
02-Jan-18 11:14 38.707031 -120.138846 354 24394ft 346kts
02-Jan-18 11:15 38.801463 -120.147548 354 24414ft 346kts
02-Jan-18 11:16 38.897116 -120.156410 354 24421ft 346kts
02-Jan-18 11:17 38.992018 -120.165186 354 24424ft 346kts
02-Jan-18 11:18 39.086836 -120.173977 354 24424ft 346kts
02-Jan-18 11:19 39.182790 -120.182912 354 24431ft 346kts
02-Jan-18 11:20 39.278119 -120.191793 354 24442ft 345kts
02-Jan-18 11:21 39.371959 -120.200610 354 24447ft 345kts
02-Jan-18 11:22 39.466626 -120.209465 354 24445ft 345kts
02-Jan-18 11:23 39.561565 -120.218400 354 24440ft 344kts
02-Jan-18 11:24 39.655919 -120.227311 354 24437ft 344kts
02-Jan-18 11:25 39.750600 -120.236301 354 24437ft 344kts
02-Jan-18 11:26 39.843663 -120.245094 354 24438ft 343kts
02-Jan-18 11:27 39.938689 -120.254146 354 24444ft 343kts
02-Jan-18 11:28 40.032849 -120.263139 354 24442ft 343kts
02-Jan-18 11:29 40.126840 -120.272100 354 24443ft 343kts
02-Jan-18 11:30 40.220388 -120.281090 354 24445ft 343kts
02-Jan-18 11:31 40.315589 -120.290240 354 24446ft 343kts
02-Jan-18 11:32 40.409480 -120.299294 354 24447ft 343kts
02-Jan-18 11:33 40.503094 -120.308346 354 24447ft 343kts
02-Jan-18 11:34 40.596016 -120.328380 340 24445ft 341kts
02-Jan-18 11:35 40.685890 -120.365267 341 24443ft 341kts
02-Jan-18 11:36 40.775387 -120.401316 341 24439ft 341kts
02-Jan-18 11:37 40.865722 -120.437850 340 24430ft 341kts
02-Jan-18 11:38 40.954025 -120.473711 340 24422ft 341kts
02-Jan-18 11:39 41.043449 -120.510056 340 24415ft 340kts
02-Jan-18 11:40 41.133265 -120.546702 340 24408ft 340kts
02-Jan-18 11:41 41.222455 -120.583170 340 24399ft 340kts
02-Jan-18 11:42 41.311455 -120.619706 340 24395ft 339kts
02-Jan-18 11:43 41.400156 -120.656264 340 24395ft 339kts
02-Jan-18 11:44 41.489542 -120.693131 340 24395ft 339kts
02-Jan-18 11:45 41.577900 -120.729713 339 24394ft 338kts
02-Jan-18 11:46 41.667718 -120.767057 339 24395ft 338kts
02-Jan-18 11:47 41.757490 -120.804491 339 24395ft 338kts
02-Jan-18 11:48 41.845103 -120.841132 339 24396ft 338kts
02-Jan-18 11:49 41.933713 -120.878297 339 24397ft 338kts
02-Jan-18 11:50 42.023177 -120.915909 339 24398ft 339kts
02-Jan-18 11:51 42.111337 -120.952872 339 24402ft 337kts
02-Jan-18 11:52 42.200788 -120.990720 339 24402ft 335kts
02-Jan-18 11:53 42.289212 -121.028189 339 24407ft 335kts
02-Jan-18 11:54 42.377461 -121.065693 339 24410ft 334kts
02-Jan-18 11:55 42.465416 -121.103246 339 24412ft 334kts
02-Jan-18 11:56 42.553581 -121.140965 339 24413ft 334kts
02-Jan-18 11:57 42.640583 -121.178254 338 24418ft 334kts
02-Jan-18 11:58 42.728798 -121.216260 338 24414ft 334kts
02-Jan-18 11:59 42.816238 -121.254021 338 24410ft 335kts
02-Jan-18 12:00 42.905241 -121.292509 338 24411ft 336kts
02-Jan-18 12:01 42.993266 -121.330779 338 24414ft 336kts
02-Jan-18 12:02 43.081561 -121.369284 338 24418ft 337kts
02-Jan-18 12:03 43.169548 -121.407771 338 24422ft 337kts
02-Jan-18 12:04 43.258823 -121.446939 338 24427ft 337kts
02-Jan-18 12:05 43.346448 -121.485389 338 24441ft 337kts
02-Jan-18 12:06 43.435441 -121.524669 338 24447ft 338kts
02-Jan-18 12:07 43.524343 -121.564046 338 24453ft 338kts
02-Jan-18 12:08 43.613709 -121.603858 338 24452ft 339kts
02-Jan-18 12:09 43.702520 -121.643359 338 24454ft 339kts
02-Jan-18 12:10 43.791195 -121.685049 337 24458ft 339kts
02-Jan-18 12:11 43.880453 -121.725129 338 24459ft 339kts
02-Jan-18 12:12 43.969873 -121.765268 338 24454ft 339kts
02-Jan-18 12:13 44.058887 -121.804897 337 24452ft 337kts
02-Jan-18 12:14 44.147116 -121.844543 337 24460ft 333kts
02-Jan-18 12:15 44.233645 -121.883666 337 24458ft 331kts
02-Jan-18 12:16 44.320731 -121.923277 336 24451ft 331kts
02-Jan-18 12:17 44.407932 -121.963076 336 24445ft 331kts
02-Jan-18 12:18 44.495461 -122.003119 336 24440ft 331kts
02-Jan-18 12:19 44.582077 -122.043444 337 24441ft 333kts
02-Jan-18 12:20 44.670102 -122.084053 337 24436ft 335kts
02-Jan-18 12:21 44.757818 -122.124485 337 24430ft 336kts
02-Jan-18 12:22 44.846160 -122.165331 337 24423ft 337kts
02-Jan-18 12:23 44.934828 -122.206458 336 24407ft 337kts
02-Jan-18 12:24 45.023084 -122.247552 336 24412ft 337kts
02-Jan-18 12:25 45.110543 -122.288426 336 24414ft 336kts
02-Jan-18 12:26 45.198557 -122.329732 336 24412ft 336kts
02-Jan-18 12:27 45.285790 -122.370821 336 24397ft 335kts
02-Jan-18 12:28 45.373881 -122.412514 336 24389ft 335kts
02-Jan-18 12:29 45.461195 -122.454009 335 24388ft 334kts
02-Jan-18 12:30 45.548846 -122.495916 335 24391ft 334kts
02-Jan-18 12:31 45.636401 -122.537816 335 24388ft 334kts
02-Jan-18 12:32 45.723129 -122.579572 335 24387ft 333kts
02-Jan-18 12:33 45.813148 -122.608000 345 24386ft 338kts
02-Jan-18 12:34 45.905969 -122.630431 344 24096ft 339kts
02-Jan-18 12:35 45.982718 -122.649563 344 23550ft 325kts
02-Jan-18 12:36 46.071269 -122.671759 344 22594ft 326kts
02-Jan-18 12:37 46.160690 -122.691521 347 21360ft 332kts
02-Jan-18 12:38 46.251531 -122.708458 347 19650ft 322kts
02-Jan-18 12:39 46.323008 -122.722567 350 17998ft 307kts
02-Jan-18 12:40 46.407422 -122.725787 355 16901ft 302kts
02-Jan-18 12:41 46.490930 -122.728466 355 15934ft 299kts
02-Jan-18 12:42 46.574054 -122.731602 355 15139ft 301kts
02-Jan-18 12:43 46.656670 -122.734487 356 14265ft 301kts
02-Jan-18 12:44 46.737424 -122.737517 356 12268ft 283kts
02-Jan-18 12:45 46.805256 -122.712051 35 11575ft 260kts
02-Jan-18 12:46 46.865526 -122.641242 44 10589ft 294kts
02-Jan-18 12:47 46.924087 -122.558533 46 9566ft 279kts
02-Jan-18 12:48 46.975104 -122.480650 48 8567ft 257kts
02-Jan-18 12:49 47.034844 -122.423799 32 7371ft 253kts
02-Jan-18 12:50 47.093253 -122.375252 33 6323ft 228kts
02-Jan-18 12:51 47.148964 -122.327074 25 5432ft 239kts
02-Jan-18 12:52 47.215130 -122.310503 5 4530ft 242kts
02-Jan-18 12:53 47.275989 -122.308545 1 3631ft 194kts
02-Jan-18 12:54 47.325645 -122.310307 0 2892ft 155kts
02-Jan-18 12:55 47.366924 -122.309723 3 1609ft 139kts
02-Jan-18 12:56 47.405067 -122.308276 359 927ft 125kts
02-Jan-18 12:57 47.438872 -122.307937 358 441ft 77kts
02-Jan-18 12:58 47.443539 -122.306822 84 440ft 0kts
02-Jan-18 12:59 47.443539 -122.306822 84 440ft 0kts
02-Jan-18 13:00 47.443539 -122.306824 84 440ft 0kts
02-Jan-18 13:01 47.448374 -122.306152 0 440ft 0kts
02-Jan-18 13:02 47.450561 -122.305007 2 441ft 17kts
02-Jan-18 13:03 47.451660 -122.303659 89 441ft 1kts
02-Jan-18 13:04 47.451662 -122.303537 88 440ft 0kts
02-Jan-18 13:05 47.451662 -122.303537 88 440ft 0kts
02-Jan-18 13:06 47.451662 -122.303537 88 440ft 0kts
02-Jan-18 13:07 47.451662 -122.303537 88 440ft 0kts
02-Jan-18 13:08 47.451662 -122.303537 88 440ft 0kts
02-Jan-18 13:09 47.451662 -122.303537 88 440ft 0kts
02-Jan-18 13:10 47.451662 -122.303537 88 440ft 0kts
02-Jan-18 13:11 47.451662 -122.303537 88 440ft 0kts
02-Jan-18 13:12 47.451662 -122.303537 88 440ft 0kts
02-Jan-18 13:13 47.451662 -122.303537 88 440ft 0kts

Navigation Log

Ident Type
Flight plan parsing failed, navigation log unavailable